createdAt,value
2022-11-25T00:00:10.284Z,100.00
2022-11-25T00:02:43.123Z,100.00
2022-11-25T00:05:10.171Z,100.00
2022-11-25T00:07:37.381Z,100.00
2022-11-25T00:10:08.302Z,100.00
2022-11-25T00:12:35.052Z,100.00
2022-11-25T00:15:02.021Z,100.00
2022-11-25T00:17:28.891Z,100.00
2022-11-25T00:19:57.160Z,100.00
2022-11-25T00:22:26.090Z,100.00
2022-11-25T00:24:52.816Z,100.00
2022-11-25T00:27:19.833Z,100.00
2022-11-25T00:29:46.562Z,100.00
2022-11-25T00:32:13.435Z,100.00
2022-11-25T00:34:40.182Z,100.00
2022-11-25T00:37:11.504Z,100.00
2022-11-25T00:39:38.256Z,100.00
2022-11-25T00:42:05.110Z,100.00
2022-11-25T00:44:32.171Z,100.00
2022-11-25T00:47:00.505Z,100.00
2022-11-25T00:49:27.992Z,100.00
2022-11-25T00:51:55.321Z,100.00
2022-11-25T00:54:23.605Z,100.00
2022-11-25T00:56:50.493Z,100.00
2022-11-25T00:59:17.997Z,100.00
2022-11-25T01:01:44.923Z,100.00
2022-11-25T01:04:12.193Z,100.00
2022-11-25T01:06:39.117Z,100.00
2022-11-25T01:09:07.615Z,100.00
2022-11-25T01:11:35.830Z,100.00
2022-11-25T01:14:02.718Z,100.00
2022-11-25T01:16:30.431Z,100.00
2022-11-25T01:19:00.124Z,100.00
2022-11-25T01:21:29.938Z,100.00
2022-11-25T01:23:59.605Z,100.00
2022-11-25T01:26:26.521Z,100.00
2022-11-25T01:28:56.765Z,100.00
2022-11-25T01:31:25.821Z,100.00
2022-11-25T01:33:54.783Z,99.86
2022-11-25T01:36:24.288Z,99.24
2022-11-25T01:38:53.701Z,100.00
2022-11-25T01:41:22.046Z,100.00
2022-11-25T01:44:12.929Z,100.00
2022-11-25T01:46:47.950Z,100.00
2022-11-25T01:49:17.675Z,100.00
2022-11-25T01:51:48.482Z,100.00
2022-11-25T01:54:19.563Z,100.00
2022-11-25T01:56:51.445Z,100.00
2022-11-25T01:59:20.106Z,100.00
2022-11-25T02:01:46.908Z,100.00
2022-11-25T02:04:17.393Z,100.00
2022-11-25T02:06:50.760Z,100.00
2022-11-25T02:09:18.837Z,100.00
2022-11-25T02:11:46.282Z,100.00
2022-11-25T02:14:14.694Z,100.00
2022-11-25T02:16:43.138Z,100.00
2022-11-25T02:19:25.798Z,100.00
2022-11-25T02:21:56.898Z,100.00
2022-11-25T02:24:30.203Z,100.00
2022-11-25T02:26:58.762Z,100.00
2022-11-25T02:29:26.246Z,100.00
2022-11-25T02:31:53.199Z,100.00
2022-11-25T02:34:20.018Z,100.00
2022-11-25T02:36:48.412Z,100.00
2022-11-25T02:39:15.245Z,100.00
2022-11-25T02:41:46.560Z,100.00
2022-11-25T02:44:15.046Z,100.00
2022-11-25T02:46:42.928Z,100.00
2022-11-25T02:49:10.547Z,100.00
2022-11-25T02:51:39.909Z,100.00
2022-11-25T02:54:07.227Z,100.00
2022-11-25T02:56:36.529Z,100.00
2022-11-25T02:59:03.864Z,100.00
2022-11-25T03:01:33.462Z,100.00
2022-11-25T03:04:00.344Z,100.00
2022-11-25T03:06:27.869Z,100.00
2022-11-25T03:08:54.635Z,99.06
2022-11-25T03:11:21.542Z,97.55
2022-11-25T03:13:49.452Z,100.00
2022-11-25T03:16:16.258Z,100.00
2022-11-25T03:18:44.741Z,100.00
2022-11-25T03:21:11.513Z,100.00
2022-11-25T03:23:40.486Z,100.00
2022-11-25T03:26:07.415Z,100.00
2022-11-25T03:28:34.374Z,100.00
2022-11-25T03:31:01.134Z,100.00
2022-11-25T03:33:28.156Z,100.00
2022-11-25T03:35:56.271Z,100.00
2022-11-25T03:38:24.285Z,100.00
2022-11-25T03:40:51.019Z,100.00
2022-11-25T03:43:17.965Z,100.00
2022-11-25T03:45:47.971Z,100.00
2022-11-25T03:48:14.886Z,100.00
2022-11-25T03:50:41.749Z,100.00
2022-11-25T03:53:10.171Z,100.00
2022-11-25T03:55:37.028Z,100.00
2022-11-25T03:58:03.846Z,100.00
2022-11-25T04:00:30.770Z,100.00
2022-11-25T04:02:57.799Z,100.00
2022-11-25T04:05:25.709Z,100.00
2022-11-25T04:07:57.704Z,100.00
2022-11-25T04:10:26.439Z,100.00
2022-11-25T04:12:53.686Z,100.00
2022-11-25T04:15:20.625Z,100.00
2022-11-25T04:17:47.439Z,100.00
2022-11-25T04:20:14.678Z,100.00
2022-11-25T04:22:41.524Z,100.00
2022-11-25T04:25:09.223Z,100.00
2022-11-25T04:27:37.362Z,100.00
2022-11-25T04:30:06.083Z,100.00
2022-11-25T04:32:32.847Z,100.00
2022-11-25T04:34:59.858Z,100.00
2022-11-25T04:37:26.612Z,99.91
2022-11-25T04:39:53.366Z,100.00
2022-11-25T04:42:20.378Z,100.00
2022-11-25T04:45:07.285Z,100.00
2022-11-25T04:47:35.990Z,100.00
2022-11-25T04:50:03.450Z,100.00
2022-11-25T04:52:30.210Z,100.00
2022-11-25T04:54:56.946Z,100.00
2022-11-25T04:57:23.856Z,100.00
2022-11-25T04:59:52.073Z,100.00
2022-11-25T05:02:21.589Z,100.00
2022-11-25T05:04:49.700Z,100.00
2022-11-25T05:07:19.160Z,100.00
2022-11-25T05:09:46.221Z,100.00
2022-11-25T05:12:18.216Z,100.00
2022-11-25T05:14:45.406Z,100.00
2022-11-25T05:17:17.126Z,100.00
2022-11-25T05:19:43.981Z,100.00
2022-11-25T05:22:11.834Z,100.00
2022-11-25T05:24:39.078Z,100.00
2022-11-25T05:27:06.277Z,100.00
2022-11-25T05:29:34.293Z,100.00
2022-11-25T05:32:01.218Z,100.00
2022-11-25T05:34:29.508Z,100.00
2022-11-25T05:36:58.021Z,100.00
2022-11-25T05:39:25.027Z,100.00
2022-11-25T05:41:51.801Z,99.36
2022-11-25T05:44:22.953Z,100.00
2022-11-25T05:46:50.153Z,100.00
2022-11-25T05:49:18.055Z,100.00
2022-11-25T05:51:46.755Z,100.00
2022-11-25T05:54:14.701Z,100.00
2022-11-25T05:56:41.601Z,100.00
2022-11-25T05:59:09.793Z,97.23
2022-11-25T06:01:36.557Z,99.67
2022-11-25T06:04:06.361Z,99.80
2022-11-25T06:06:33.231Z,99.98
2022-11-25T06:09:01.733Z,100.00
2022-11-25T06:11:28.624Z,100.00
2022-11-25T06:13:57.215Z,100.00
2022-11-25T06:16:25.429Z,100.00
2022-11-25T06:18:52.929Z,100.00
2022-11-25T06:21:20.307Z,100.00
2022-11-25T06:23:47.404Z,100.00
2022-11-25T06:26:17.147Z,100.00
2022-11-25T06:28:44.269Z,100.00
2022-11-25T06:31:14.041Z,100.00
2022-11-25T06:33:41.503Z,100.00
2022-11-25T06:36:10.539Z,100.00
2022-11-25T06:38:37.316Z,100.00
2022-11-25T06:41:06.061Z,100.00
2022-11-25T06:43:34.316Z,100.00
2022-11-25T06:46:05.739Z,97.90
2022-11-25T06:48:33.042Z,99.28
2022-11-25T06:51:02.558Z,100.00
2022-11-25T06:53:30.603Z,100.00
2022-11-25T06:56:11.283Z,100.00
2022-11-25T06:58:40.313Z,100.00
2022-11-25T07:01:13.007Z,96.31
2022-11-25T07:03:40.609Z,98.29
2022-11-25T07:06:08.724Z,100.00
2022-11-25T07:08:36.824Z,100.00
2022-11-25T07:11:05.774Z,100.00
2022-11-25T07:13:34.235Z,100.00
2022-11-25T07:16:05.354Z,100.00
2022-11-25T07:18:36.200Z,98.04
2022-11-25T07:21:06.239Z,97.79
2022-11-25T07:23:33.994Z,100.00
2022-11-25T07:26:07.159Z,98.64
2022-11-25T07:28:36.520Z,94.90
2022-11-25T07:34:02.164Z,99.09
2022-11-25T07:36:30.586Z,99.30
2022-11-25T07:39:00.134Z,100.00
2022-11-25T07:41:28.611Z,99.26
2022-11-25T07:43:58.467Z,99.84
2022-11-25T07:46:29.354Z,99.51
2022-11-25T07:49:01.794Z,98.23
2022-11-25T07:51:31.810Z,96.78
2022-11-25T07:54:00.575Z,96.37
2022-11-25T07:56:29.817Z,96.72
2022-11-25T07:58:57.782Z,97.03
2022-11-25T08:01:27.000Z,96.70
2022-11-25T08:03:56.025Z,95.36
2022-11-25T08:06:26.867Z,95.04
2022-11-25T08:08:54.663Z,94.11
2022-11-25T08:11:24.958Z,92.27
2022-11-25T08:13:54.283Z,89.07
2022-11-25T08:16:23.535Z,88.49
2022-11-25T08:18:52.372Z,87.36
2022-11-25T08:21:20.573Z,89.75
2022-11-25T08:23:49.004Z,88.12
2022-11-25T08:26:18.863Z,86.10
2022-11-25T08:28:47.451Z,86.42
2022-11-25T08:31:18.326Z,83.79
2022-11-25T08:33:48.752Z,85.80
2022-11-25T08:36:19.528Z,84.99
2022-11-25T08:38:48.508Z,84.87
2022-11-25T08:41:18.356Z,84.75
2022-11-25T08:43:45.657Z,84.97
2022-11-25T08:46:15.795Z,84.60
2022-11-25T08:48:42.938Z,83.82
2022-11-25T08:51:14.622Z,84.23
2022-11-25T08:53:43.686Z,84.18
2022-11-25T08:56:11.213Z,83.14
2022-11-25T08:58:39.006Z,83.16
2022-11-25T09:01:07.220Z,82.13
2022-11-25T09:03:36.177Z,82.89
2022-11-25T09:06:04.037Z,82.00
2022-11-25T09:08:32.578Z,81.11
2022-11-25T09:11:01.662Z,82.41
2022-11-25T09:13:29.764Z,82.12
2022-11-25T09:15:58.265Z,83.04
2022-11-25T09:18:25.599Z,83.02
2022-11-25T09:20:54.490Z,82.71
2022-11-25T09:23:21.542Z,81.27
2022-11-25T09:25:51.585Z,83.57
2022-11-25T09:28:21.204Z,83.84
2022-11-25T09:30:49.872Z,83.95
2022-11-25T09:33:35.546Z,83.91
2022-11-25T09:36:05.413Z,84.24
2022-11-25T09:38:34.886Z,83.71
2022-11-25T09:41:08.432Z,83.93
2022-11-25T09:43:51.771Z,85.16
2022-11-25T09:46:35.448Z,86.44
2022-11-25T09:49:11.866Z,87.31
2022-11-25T09:51:55.402Z,89.75
2022-11-25T09:54:29.847Z,90.78
2022-11-25T09:57:01.821Z,91.36
2022-11-25T09:59:39.132Z,91.59
2022-11-25T10:02:27.317Z,91.95
2022-11-25T10:05:03.270Z,92.69
2022-11-25T10:07:36.835Z,93.70
2022-11-25T10:10:07.131Z,93.60
2022-11-25T10:12:38.858Z,93.07
2022-11-25T10:15:16.519Z,93.53
2022-11-25T10:17:47.112Z,92.05
2022-11-25T10:20:20.249Z,92.75
2022-11-25T10:22:50.388Z,92.24
2022-11-25T10:25:22.101Z,92.38
2022-11-25T10:27:53.033Z,91.69
2022-11-25T10:30:23.222Z,90.16
2022-11-25T10:32:57.880Z,91.26
2022-11-25T10:35:34.054Z,91.54
2022-11-25T10:38:03.581Z,90.94
2022-11-25T10:40:33.479Z,90.69
2022-11-25T10:43:02.792Z,91.07
2022-11-25T10:45:41.005Z,91.10
2022-11-25T10:48:19.630Z,92.18
2022-11-25T10:51:03.073Z,91.67
2022-11-25T10:53:30.055Z,90.57
2022-11-25T10:56:00.446Z,89.99
2022-11-25T10:58:31.295Z,89.15
2022-11-25T11:01:21.024Z,89.33
2022-11-25T11:03:53.334Z,89.23
2022-11-25T11:06:32.808Z,89.33
2022-11-25T11:08:59.833Z,89.63
2022-11-25T11:11:28.174Z,88.85
2022-11-25T11:14:12.393Z,88.05
2022-11-25T11:16:42.526Z,86.74
2022-11-25T11:19:21.915Z,86.54
2022-11-25T11:21:51.314Z,84.36
2022-11-25T11:24:27.271Z,84.89
2022-11-25T11:27:06.797Z,84.61
2022-11-25T11:29:34.094Z,85.70
2022-11-25T11:32:04.832Z,86.12
2022-11-25T11:34:53.164Z,85.73
2022-11-25T11:37:34.040Z,85.09
2022-11-25T11:40:25.067Z,85.13
2022-11-25T11:43:02.719Z,85.27
2022-11-25T11:45:42.513Z,84.81
2022-11-25T11:48:21.946Z,82.78
2022-11-25T11:50:51.362Z,83.82
2022-11-25T11:53:25.782Z,83.92
2022-11-25T11:56:32.992Z,84.25
2022-11-25T11:58:59.905Z,83.83
2022-11-25T12:01:41.983Z,84.37
2022-11-25T12:04:17.907Z,85.20
2022-11-25T12:06:54.384Z,85.01
2022-11-25T12:09:26.044Z,84.63
2022-11-25T12:12:00.547Z,84.67
2022-11-25T12:14:39.358Z,85.22
2022-11-25T12:17:14.721Z,85.51
2022-11-25T12:19:55.001Z,85.68
2022-11-25T12:22:28.613Z,85.40
2022-11-25T12:25:04.364Z,86.35
2022-11-25T12:27:35.391Z,87.16
2022-11-25T12:30:06.303Z,88.31
2022-11-25T12:32:52.029Z,89.18
2022-11-25T12:35:31.247Z,88.98
2022-11-25T12:38:05.263Z,89.90
2022-11-25T12:40:35.591Z,90.92
2022-11-25T12:43:15.219Z,91.40
2022-11-25T12:45:47.012Z,91.38
2022-11-25T12:48:18.575Z,91.66
2022-11-25T12:51:03.063Z,92.24
2022-11-25T12:53:38.780Z,92.90
2022-11-25T12:56:14.335Z,93.42
2022-11-25T12:58:54.020Z,94.15
2022-11-25T13:01:46.749Z,93.85
2022-11-25T13:04:50.692Z,94.40
2022-11-25T13:07:34.306Z,95.20
2022-11-25T13:10:37.966Z,94.66
2022-11-25T13:13:26.150Z,93.83
2022-11-25T13:15:55.206Z,93.47
2022-11-25T13:18:29.078Z,94.17
2022-11-25T13:20:57.272Z,94.24
2022-11-25T13:23:32.156Z,94.64
2022-11-25T13:26:38.222Z,95.34
2022-11-25T13:30:01.554Z,95.68
2022-11-25T13:32:36.214Z,95.59
2022-11-25T13:35:51.545Z,96.00
2022-11-25T13:38:57.137Z,95.70
2022-11-25T13:41:34.128Z,94.68
2022-11-25T13:44:06.776Z,94.07
2022-11-25T13:46:40.527Z,93.73
2022-11-25T13:49:28.639Z,93.39
2022-11-25T13:52:00.368Z,93.61
2022-11-25T13:54:37.700Z,95.45
2022-11-25T13:57:26.379Z,95.74
2022-11-25T13:59:57.554Z,95.35
2022-11-25T14:02:41.080Z,94.59
2022-11-25T14:05:27.002Z,91.34
2022-11-25T14:08:11.175Z,89.59
2022-11-25T14:10:51.676Z,89.02
2022-11-25T14:13:46.202Z,89.11
2022-11-25T14:16:36.286Z,89.80
2022-11-25T14:22:32.555Z,92.73
2022-11-25T14:25:16.740Z,93.09
2022-11-25T14:27:48.933Z,93.65
2022-11-25T14:30:17.685Z,93.17
2022-11-25T14:32:55.847Z,94.21
2022-11-25T14:35:30.533Z,95.20
2022-11-25T14:38:03.506Z,95.90
2022-11-25T14:40:37.569Z,95.96
2022-11-25T14:43:18.096Z,96.26
2022-11-25T14:45:46.412Z,96.99
2022-11-25T14:48:14.904Z,97.69
2022-11-25T14:50:54.667Z,98.91
2022-11-25T14:53:22.712Z,98.95
2022-11-25T14:55:50.372Z,100.00
2022-11-25T14:58:20.853Z,100.00
2022-11-25T15:00:53.825Z,100.00
2022-11-25T15:03:20.953Z,100.00
2022-11-25T15:05:56.551Z,100.00
2022-11-25T15:08:25.128Z,100.00
2022-11-25T15:10:58.238Z,100.00
2022-11-25T15:13:33.600Z,100.00
2022-11-25T15:16:08.689Z,100.00
2022-11-25T15:18:36.684Z,100.00
2022-11-25T15:21:06.129Z,100.00
2022-11-25T15:23:37.462Z,100.00
2022-11-25T15:26:15.717Z,100.00
2022-11-25T15:28:46.786Z,100.00
2022-11-25T15:31:20.677Z,100.00
2022-11-25T15:33:54.552Z,100.00
2022-11-25T15:36:23.811Z,100.00
2022-11-25T15:38:51.462Z,100.00
2022-11-25T15:41:32.952Z,100.00
2022-11-25T15:44:03.851Z,100.00
2022-11-25T15:46:35.900Z,100.00
2022-11-25T15:49:06.152Z,100.00
2022-11-25T15:51:38.978Z,100.00
2022-11-25T15:54:17.280Z,100.00
2022-11-25T15:56:46.643Z,100.00
2022-11-25T15:59:46.289Z,100.00
2022-11-25T16:02:38.142Z,100.00
2022-11-25T16:05:25.035Z,100.00
2022-11-25T16:08:20.585Z,100.00
2022-11-25T16:10:58.263Z,100.00
2022-11-25T16:13:35.894Z,100.00
2022-11-25T16:16:15.429Z,100.00
2022-11-25T16:18:50.790Z,100.00
2022-11-25T16:21:20.446Z,100.00
2022-11-25T16:23:51.763Z,100.00
2022-11-25T16:26:24.949Z,100.00
2022-11-25T16:28:55.920Z,100.00
2022-11-25T16:31:25.042Z,100.00
2022-11-25T16:33:55.127Z,100.00
2022-11-25T16:36:22.192Z,100.00
2022-11-25T16:38:52.451Z,100.00
2022-11-25T16:41:22.286Z,100.00
2022-11-25T16:43:49.475Z,100.00
2022-11-25T16:46:18.853Z,100.00
2022-11-25T16:48:47.645Z,100.00
2022-11-25T16:51:16.767Z,100.00
2022-11-25T16:53:44.523Z,100.00
2022-11-25T16:56:15.023Z,100.00
2022-11-25T16:58:43.126Z,100.00
2022-11-25T17:01:34.819Z,100.00
2022-11-25T17:04:03.163Z,100.00
2022-11-25T17:06:30.168Z,100.00
2022-11-25T17:08:57.281Z,100.00
2022-11-25T17:11:28.311Z,100.00
2022-11-25T17:13:58.446Z,100.00
2022-11-25T17:16:33.148Z,100.00
2022-11-25T17:19:00.761Z,100.00
2022-11-25T17:21:29.412Z,100.00
2022-11-25T17:24:16.387Z,100.00
2022-11-25T17:26:46.967Z,100.00
2022-11-25T17:29:16.882Z,100.00
2022-11-25T17:31:51.305Z,100.00
2022-11-25T17:34:21.950Z,100.00
2022-11-25T17:36:50.395Z,100.00
2022-11-25T17:39:17.196Z,100.00
2022-11-25T17:41:46.068Z,100.00
2022-11-25T17:44:24.217Z,100.00
2022-11-25T17:46:51.229Z,100.00
2022-11-25T17:49:18.319Z,100.00
2022-11-25T17:51:45.777Z,100.00
2022-11-25T17:54:14.891Z,100.00
2022-11-25T17:56:46.486Z,100.00
2022-11-25T17:59:23.487Z,100.00
2022-11-25T18:01:50.451Z,100.00
2022-11-25T18:04:21.481Z,100.00
2022-11-25T18:06:48.471Z,100.00
2022-11-25T18:09:18.447Z,100.00
2022-11-25T18:11:48.488Z,100.00
2022-11-25T18:14:25.395Z,99.00
2022-11-25T18:16:53.319Z,100.00
2022-11-25T18:19:21.164Z,100.00
2022-11-25T18:21:47.983Z,100.00
2022-11-25T18:24:14.800Z,100.00
2022-11-25T18:26:45.118Z,100.00
2022-11-25T18:29:17.384Z,100.00
2022-11-25T18:31:44.241Z,100.00
2022-11-25T18:34:16.554Z,100.00
2022-11-25T18:36:45.280Z,100.00
2022-11-25T18:39:12.515Z,100.00
2022-11-25T18:41:42.001Z,100.00
2022-11-25T18:44:25.645Z,100.00
2022-11-25T18:46:53.782Z,100.00
2022-11-25T18:49:21.312Z,100.00
2022-11-25T18:51:48.154Z,100.00
2022-11-25T18:54:15.210Z,100.00
2022-11-25T18:56:43.301Z,100.00
2022-11-25T18:59:17.134Z,100.00
2022-11-25T19:01:49.626Z,100.00
2022-11-25T19:04:16.883Z,99.12
2022-11-25T19:06:44.078Z,97.63
2022-11-25T19:09:11.424Z,100.00
2022-11-25T19:11:41.764Z,100.00
2022-11-25T19:14:13.322Z,100.00
2022-11-25T19:16:43.199Z,100.00
2022-11-25T19:19:14.260Z,100.00
2022-11-25T19:21:41.716Z,100.00
2022-11-25T19:24:12.389Z,99.21
2022-11-25T19:26:44.096Z,100.00
2022-11-25T19:29:17.531Z,100.00
2022-11-25T19:31:47.180Z,100.00
2022-11-25T19:34:24.662Z,100.00
2022-11-25T19:36:51.860Z,100.00
2022-11-25T19:39:18.813Z,99.44
2022-11-25T19:41:47.227Z,96.61
2022-11-25T19:44:14.240Z,97.16
2022-11-25T19:47:13.730Z,98.31
2022-11-25T19:49:33.413Z,100.00
2022-11-25T19:52:00.361Z,99.86
2022-11-25T19:54:27.367Z,100.00
2022-11-25T19:56:54.320Z,99.92
2022-11-25T19:59:21.453Z,100.00
2022-11-25T20:01:51.041Z,100.00
2022-11-25T20:04:20.964Z,98.87
2022-11-25T20:06:48.794Z,99.53
2022-11-25T20:09:15.821Z,99.63
2022-11-25T20:11:43.250Z,99.74
2022-11-25T20:14:10.514Z,100.00
2022-11-25T20:16:40.963Z,100.00
2022-11-25T20:19:16.271Z,100.00
2022-11-25T20:21:43.461Z,100.00
2022-11-25T20:24:14.356Z,99.89
2022-11-25T20:26:42.548Z,100.00
2022-11-25T20:29:14.969Z,100.00
2022-11-25T20:31:41.870Z,98.89
2022-11-25T20:34:12.363Z,100.00
2022-11-25T20:36:40.929Z,99.86
2022-11-25T20:39:17.322Z,99.24
2022-11-25T20:41:48.196Z,99.48
2022-11-25T20:44:15.039Z,100.00
2022-11-25T20:46:42.025Z,98.94
2022-11-25T20:49:20.525Z,95.96
2022-11-25T20:51:47.575Z,96.02
2022-11-25T20:54:14.535Z,96.89
2022-11-25T20:56:41.563Z,98.91
2022-11-25T20:59:19.294Z,100.00
2022-11-25T21:01:46.359Z,96.49
2022-11-25T21:04:14.675Z,94.97
2022-11-25T21:06:42.245Z,94.72
2022-11-25T21:09:16.638Z,97.09
2022-11-25T21:11:44.672Z,99.29
2022-11-25T21:14:14.573Z,100.00
2022-11-25T21:16:41.701Z,100.00
2022-11-25T21:19:08.580Z,100.00
2022-11-25T21:21:39.566Z,97.11
2022-11-25T21:24:16.663Z,96.30
2022-11-25T21:26:43.683Z,97.82
2022-11-25T21:29:14.825Z,100.00
2022-11-25T21:31:41.857Z,100.00
2022-11-25T21:34:12.080Z,100.00
2022-11-25T21:36:41.530Z,98.39
2022-11-25T21:39:17.051Z,98.48
2022-11-25T21:41:44.020Z,97.59
2022-11-25T21:44:20.873Z,99.35
2022-11-25T21:46:47.730Z,99.17
2022-11-25T21:49:14.583Z,99.59
2022-11-25T21:51:42.955Z,98.24
2022-11-25T21:54:10.238Z,97.14
2022-11-25T21:56:37.703Z,96.98
2022-11-25T21:59:07.627Z,97.82
2022-11-25T22:01:34.465Z,98.95
2022-11-25T22:04:02.504Z,96.51
2022-11-25T22:06:30.376Z,97.33
2022-11-25T22:08:58.811Z,99.41
2022-11-25T22:11:30.629Z,99.20
2022-11-25T22:13:59.350Z,100.00
2022-11-25T22:16:30.137Z,100.00
2022-11-25T22:18:58.059Z,100.00
2022-11-25T22:21:24.991Z,100.00
2022-11-25T22:23:52.033Z,100.00
2022-11-25T22:26:27.263Z,100.00
2022-11-25T22:28:54.485Z,100.00
2022-11-25T22:31:23.226Z,100.00
2022-11-25T22:33:50.571Z,100.00
2022-11-25T22:36:30.145Z,100.00
2022-11-25T22:38:58.961Z,100.00
2022-11-25T22:41:27.186Z,100.00
2022-11-25T22:43:55.333Z,100.00
2022-11-25T22:46:22.205Z,100.00
2022-11-25T22:48:49.428Z,100.00
2022-11-25T22:51:18.379Z,100.00
2022-11-25T22:53:45.507Z,100.00
2022-11-25T22:56:17.556Z,100.00
2022-11-25T22:58:46.492Z,100.00
2022-11-25T23:01:16.689Z,100.00
2022-11-25T23:03:44.605Z,100.00
2022-11-25T23:06:13.070Z,100.00
2022-11-25T23:08:40.267Z,100.00
2022-11-25T23:11:14.662Z,100.00
2022-11-25T23:13:41.165Z,100.00
2022-11-25T23:16:12.268Z,100.00
2022-11-25T23:18:40.845Z,100.00
2022-11-25T23:21:16.593Z,100.00
2022-11-25T23:23:43.434Z,100.00
2022-11-25T23:26:11.549Z,100.00
2022-11-25T23:28:38.483Z,100.00
2022-11-25T23:31:06.085Z,100.00
2022-11-25T23:33:37.059Z,100.00
2022-11-25T23:36:09.251Z,100.00
2022-11-25T23:38:41.491Z,100.00
2022-11-25T23:41:14.510Z,100.00
2022-11-25T23:43:41.326Z,100.00
2022-11-25T23:46:11.201Z,100.00
2022-11-25T23:48:39.984Z,100.00
2022-11-25T23:51:08.353Z,100.00
2022-11-25T23:53:39.165Z,100.00
2022-11-25T23:56:06.845Z,100.00
2022-11-25T23:58:33.822Z,100.00
